createdAt,value
2022-12-09T00:00:10.710Z,2.87
2022-12-09T00:02:40.805Z,2.86
2022-12-09T00:05:10.756Z,2.86
2022-12-09T00:07:39.405Z,2.87
2022-12-09T00:10:09.412Z,2.86
2022-12-09T00:12:38.426Z,2.85
2022-12-09T00:15:07.786Z,2.85
2022-12-09T00:17:36.809Z,2.84
2022-12-09T00:20:09.023Z,2.82
2022-12-09T00:22:37.909Z,2.77
2022-12-09T00:25:07.267Z,2.76
2022-12-09T00:27:35.871Z,2.75
2022-12-09T00:30:05.766Z,2.73
2022-12-09T00:32:34.871Z,2.71
2022-12-09T00:35:04.434Z,2.71
2022-12-09T00:37:35.046Z,2.69
2022-12-09T00:40:04.307Z,2.70
2022-12-09T00:42:32.775Z,2.70
2022-12-09T00:45:01.925Z,2.70
2022-12-09T00:47:30.617Z,2.70
2022-12-09T00:49:59.439Z,2.70
2022-12-09T00:52:28.433Z,2.71
2022-12-09T00:54:58.193Z,2.72
2022-12-09T00:57:26.759Z,2.71
2022-12-09T00:59:54.968Z,2.71
2022-12-09T01:02:23.629Z,2.71
2022-12-09T01:04:53.236Z,2.71
2022-12-09T01:07:22.054Z,2.70
2022-12-09T01:09:50.818Z,2.71
2022-12-09T01:12:20.627Z,2.70
2022-12-09T01:14:49.141Z,2.69
2022-12-09T01:17:17.963Z,2.68
2022-12-09T01:19:46.651Z,2.67
2022-12-09T01:22:14.960Z,2.65
2022-12-09T01:24:43.216Z,2.63
2022-12-09T01:27:11.763Z,2.61
2022-12-09T01:29:41.333Z,2.59
2022-12-09T01:32:09.627Z,2.57
2022-12-09T01:34:38.284Z,2.55
2022-12-09T01:37:06.922Z,2.52
2022-12-09T01:39:35.615Z,2.48
2022-12-09T01:42:05.421Z,2.44
2022-12-09T01:44:35.756Z,2.41
2022-12-09T01:47:05.622Z,2.40
2022-12-09T01:49:43.206Z,2.35
2022-12-09T01:52:20.303Z,2.33
2022-12-09T01:54:52.248Z,2.29
2022-12-09T01:57:21.698Z,2.28
2022-12-09T01:59:52.773Z,2.25
2022-12-09T02:02:23.739Z,2.22
2022-12-09T02:04:52.683Z,2.18
2022-12-09T02:07:21.651Z,2.14
2022-12-09T02:09:53.538Z,2.09
2022-12-09T02:12:42.222Z,2.03
2022-12-09T02:15:19.155Z,1.97
2022-12-09T02:17:55.644Z,1.92
2022-12-09T02:20:30.598Z,1.87
2022-12-09T02:23:06.976Z,1.82
2022-12-09T02:25:44.594Z,1.80
2022-12-09T02:28:39.141Z,1.75
2022-12-09T02:31:25.705Z,1.73
2022-12-09T02:34:16.138Z,1.69
2022-12-09T02:36:59.020Z,1.65
2022-12-09T02:39:34.993Z,1.64
2022-12-09T02:42:07.789Z,1.59
2022-12-09T02:44:39.596Z,1.56
2022-12-09T02:47:14.598Z,1.50
2022-12-09T02:49:47.899Z,1.45
2022-12-09T02:52:18.373Z,1.40
2022-12-09T02:54:48.273Z,1.35
2022-12-09T02:57:25.398Z,1.27
2022-12-09T02:59:53.859Z,1.23
2022-12-09T03:02:29.477Z,1.17
2022-12-09T03:05:12.639Z,1.11
2022-12-09T03:07:47.932Z,1.06
2022-12-09T03:10:24.367Z,1.00
2022-12-09T03:13:03.866Z,0.96
2022-12-09T03:15:36.631Z,0.91
2022-12-09T03:18:11.819Z,0.87
2022-12-09T03:20:44.704Z,0.82
2022-12-09T03:23:17.452Z,0.76
2022-12-09T03:25:50.141Z,0.73
2022-12-09T03:28:22.934Z,0.68
2022-12-09T03:30:54.535Z,0.65
2022-12-09T03:33:25.480Z,0.60
2022-12-09T03:35:59.797Z,0.55
2022-12-09T03:38:34.363Z,0.50
2022-12-09T03:41:11.682Z,0.44
2022-12-09T03:43:48.203Z,0.41
2022-12-09T03:46:17.031Z,0.36
2022-12-09T03:48:45.974Z,0.33
2022-12-09T03:51:20.420Z,0.32
2022-12-09T03:53:52.804Z,0.28
2022-12-09T03:56:24.248Z,0.25
2022-12-09T03:58:56.119Z,0.22
2022-12-09T04:01:27.349Z,0.19
2022-12-09T04:03:58.652Z,0.18
2022-12-09T04:06:29.156Z,0.15
2022-12-09T04:09:02.101Z,0.15
2022-12-09T04:11:31.703Z,0.13
2022-12-09T04:14:00.624Z,0.11
2022-12-09T04:16:29.523Z,0.07
2022-12-09T04:18:58.542Z,0.04
2022-12-09T04:21:28.625Z,0.01
2022-12-09T04:23:57.169Z,-0.03
2022-12-09T04:26:25.791Z,-0.03
2022-12-09T04:28:54.404Z,-0.04
2022-12-09T04:31:22.949Z,-0.07
2022-12-09T04:33:52.003Z,-0.09
2022-12-09T04:36:21.883Z,-0.12
2022-12-09T04:38:54.267Z,-0.13
2022-12-09T04:41:22.856Z,-0.15
2022-12-09T04:43:51.422Z,-0.19
2022-12-09T04:46:20.434Z,-0.19
2022-12-09T04:48:49.403Z,-0.20
2022-12-09T04:51:18.311Z,-0.22
2022-12-09T04:53:47.068Z,-0.21
2022-12-09T04:56:19.773Z,-0.16
2022-12-09T04:58:49.951Z,-0.12
2022-12-09T05:01:30.070Z,-0.09
2022-12-09T05:04:00.522Z,-0.06
2022-12-09T05:06:29.677Z,-0.03
2022-12-09T05:08:58.775Z,-0.02
2022-12-09T05:11:29.074Z,0.02
2022-12-09T05:13:58.540Z,0.07
2022-12-09T05:16:27.319Z,0.09
2022-12-09T05:18:56.204Z,0.11
2022-12-09T05:21:25.285Z,0.14
2022-12-09T05:23:54.212Z,0.16
2022-12-09T05:26:24.437Z,0.18
2022-12-09T05:28:54.311Z,0.19
2022-12-09T05:31:25.303Z,0.20
2022-12-09T05:33:54.720Z,0.24
2022-12-09T05:36:27.739Z,0.25
2022-12-09T05:38:56.594Z,0.28
2022-12-09T05:41:26.064Z,0.29
2022-12-09T05:43:56.064Z,0.28
2022-12-09T05:46:24.983Z,0.24
2022-12-09T05:48:54.118Z,0.21
2022-12-09T05:51:26.353Z,0.16
2022-12-09T05:53:56.740Z,0.10
2022-12-09T05:56:26.740Z,0.08
2022-12-09T05:58:57.316Z,0.08
2022-12-09T06:01:26.519Z,0.10
2022-12-09T06:03:56.734Z,0.10
2022-12-09T06:06:28.130Z,0.10
2022-12-09T06:08:59.672Z,0.08
2022-12-09T06:11:29.402Z,0.05
2022-12-09T06:13:59.687Z,0.02
2022-12-09T06:16:28.539Z,-0.03
2022-12-09T06:18:57.933Z,-0.04
2022-12-09T06:21:27.321Z,-0.07
2022-12-09T06:23:56.212Z,-0.10
2022-12-09T06:26:27.764Z,-0.15
2022-12-09T06:28:57.540Z,-0.17
2022-12-09T06:31:29.113Z,-0.19
2022-12-09T06:33:59.629Z,-0.21
2022-12-09T06:36:30.519Z,-0.23
2022-12-09T06:39:09.717Z,-0.22
2022-12-09T06:41:41.420Z,-0.22
2022-12-09T06:44:11.894Z,-0.24
2022-12-09T06:46:42.874Z,-0.23
2022-12-09T06:49:11.832Z,-0.25
2022-12-09T06:51:40.504Z,-0.25
2022-12-09T06:54:09.726Z,-0.26
2022-12-09T06:56:38.577Z,-0.28
2022-12-09T06:59:11.386Z,-0.28
2022-12-09T07:01:42.036Z,-0.30
2022-12-09T07:04:15.039Z,-0.31
2022-12-09T07:06:46.968Z,-0.32
2022-12-09T07:09:18.060Z,-0.33
2022-12-09T07:11:48.218Z,-0.37
2022-12-09T07:14:18.338Z,-0.38
2022-12-09T07:16:48.945Z,-0.40
2022-12-09T07:19:20.654Z,-0.42
2022-12-09T07:21:50.859Z,-0.43
2022-12-09T07:24:20.586Z,-0.43
2022-12-09T07:26:50.832Z,-0.42
2022-12-09T07:29:20.097Z,-0.41
2022-12-09T07:31:50.434Z,-0.39
2022-12-09T07:34:19.490Z,-0.38
2022-12-09T07:36:48.181Z,-0.37
2022-12-09T07:39:19.318Z,-0.37
2022-12-09T07:41:52.075Z,-0.37
2022-12-09T07:44:21.087Z,-0.37
2022-12-09T07:46:51.546Z,-0.35
2022-12-09T07:49:20.250Z,-0.36
2022-12-09T07:51:48.956Z,-0.35
2022-12-09T07:54:20.545Z,-0.33
2022-12-09T07:56:49.535Z,-0.32
2022-12-09T07:59:18.485Z,-0.27
2022-12-09T08:01:47.333Z,-0.22
2022-12-09T08:04:17.238Z,-0.18
2022-12-09T08:06:46.516Z,-0.12
2022-12-09T08:09:15.906Z,-0.07
2022-12-09T08:11:44.753Z,-0.02
2022-12-09T08:14:14.277Z,0.05
2022-12-09T08:16:44.139Z,0.12
2022-12-09T08:19:13.985Z,0.18
2022-12-09T08:21:47.281Z,0.26
2022-12-09T08:24:18.460Z,0.36
2022-12-09T08:26:47.322Z,0.48
2022-12-09T08:29:16.337Z,0.59
2022-12-09T08:31:45.790Z,0.69
2022-12-09T08:34:16.023Z,0.82
2022-12-09T08:36:45.937Z,0.91
2022-12-09T08:39:15.824Z,1.02
2022-12-09T08:41:45.652Z,1.12
2022-12-09T08:44:16.511Z,1.20
2022-12-09T08:46:50.985Z,1.29
2022-12-09T08:49:22.255Z,1.36
2022-12-09T08:51:54.500Z,1.44
2022-12-09T08:54:23.247Z,1.47
2022-12-09T08:56:55.609Z,1.50
2022-12-09T08:59:25.474Z,1.52
2022-12-09T09:01:54.548Z,1.52
2022-12-09T09:04:24.193Z,1.55
2022-12-09T09:06:54.903Z,1.60
2022-12-09T09:09:23.751Z,1.65
2022-12-09T09:11:53.261Z,1.69
2022-12-09T09:14:22.189Z,1.74
2022-12-09T09:16:50.866Z,1.80
2022-12-09T09:19:23.419Z,1.89
2022-12-09T09:21:54.000Z,1.97
2022-12-09T09:24:25.380Z,2.06
2022-12-09T09:26:54.771Z,2.17
2022-12-09T09:29:24.831Z,2.30
2022-12-09T09:31:55.333Z,2.43
2022-12-09T09:34:25.396Z,2.56
2022-12-09T09:36:57.631Z,2.69
2022-12-09T09:39:26.615Z,2.83
2022-12-09T09:42:04.410Z,2.95
2022-12-09T09:44:41.132Z,3.04
2022-12-09T09:47:18.258Z,3.09
2022-12-09T09:49:54.642Z,3.13
2022-12-09T09:52:27.645Z,3.13
2022-12-09T09:54:57.260Z,3.17
2022-12-09T09:57:33.955Z,3.27
2022-12-09T10:00:19.281Z,3.42
2022-12-09T10:03:00.265Z,3.57
2022-12-09T10:05:33.620Z,3.72
2022-12-09T10:08:34.781Z,3.87
2022-12-09T10:11:18.188Z,4.04
2022-12-09T10:13:55.491Z,4.16
2022-12-09T10:16:30.908Z,4.34
2022-12-09T10:19:09.212Z,4.47
2022-12-09T10:21:44.302Z,4.54
2022-12-09T10:24:24.211Z,4.62
2022-12-09T10:27:06.887Z,4.81
2022-12-09T10:29:52.870Z,5.01
2022-12-09T10:32:25.729Z,5.20
2022-12-09T10:34:55.166Z,5.49
2022-12-09T10:37:31.503Z,5.90
2022-12-09T10:40:30.980Z,6.37
2022-12-09T10:43:17.840Z,6.79
2022-12-09T10:48:44.599Z,7.35
2022-12-09T10:51:17.641Z,7.54
2022-12-09T10:53:49.688Z,7.72
2022-12-09T10:56:24.380Z,7.83
2022-12-09T10:59:12.117Z,7.92
2022-12-09T11:01:51.756Z,8.04
2022-12-09T11:04:28.595Z,8.14
2022-12-09T11:07:02.148Z,8.24
2022-12-09T11:09:33.498Z,8.44
2022-12-09T11:12:07.796Z,8.36
2022-12-09T11:14:39.862Z,8.23
2022-12-09T11:17:18.671Z,7.97
2022-12-09T11:19:51.813Z,7.81
2022-12-09T11:22:36.553Z,7.68
2022-12-09T11:25:27.224Z,7.69
2022-12-09T11:27:59.829Z,7.93
2022-12-09T11:30:32.637Z,8.14
2022-12-09T11:33:20.503Z,8.14
2022-12-09T11:36:01.873Z,8.16
2022-12-09T11:38:37.744Z,8.02
2022-12-09T11:41:37.332Z,7.99
2022-12-09T11:44:25.838Z,7.93
2022-12-09T11:47:01.550Z,8.07
2022-12-09T11:49:33.052Z,8.27
2022-12-09T11:52:07.488Z,8.37
2022-12-09T11:54:48.471Z,8.48
2022-12-09T11:57:28.303Z,8.60
2022-12-09T12:00:06.905Z,8.49
2022-12-09T12:02:41.964Z,8.34
2022-12-09T12:05:22.711Z,8.22
2022-12-09T12:08:02.241Z,8.09
2022-12-09T12:10:35.896Z,7.94
2022-12-09T12:13:16.266Z,7.78
2022-12-09T12:15:53.156Z,7.66
2022-12-09T12:18:23.706Z,7.50
2022-12-09T12:21:20.632Z,7.27
2022-12-09T12:24:44.781Z,7.07
2022-12-09T12:27:32.347Z,6.88
2022-12-09T12:30:09.405Z,6.66
2022-12-09T12:36:04.445Z,6.15
2022-12-09T12:38:51.522Z,6.03
2022-12-09T12:41:36.244Z,5.92
2022-12-09T12:44:52.978Z,5.78
2022-12-09T12:47:29.503Z,5.62
2022-12-09T12:50:25.131Z,5.51
2022-12-09T12:53:01.803Z,5.42
2022-12-09T12:55:48.866Z,5.35
2022-12-09T12:58:34.623Z,5.25
2022-12-09T13:01:13.769Z,5.14
2022-12-09T13:03:54.337Z,5.07
2022-12-09T13:06:36.466Z,5.01
2022-12-09T13:09:12.641Z,4.95
2022-12-09T13:11:56.263Z,4.91
2022-12-09T13:14:40.959Z,4.89
2022-12-09T13:17:14.900Z,4.88
2022-12-09T13:19:48.299Z,4.89
2022-12-09T13:22:23.027Z,4.88
2022-12-09T13:25:01.753Z,4.91
2022-12-09T13:27:38.457Z,4.90
2022-12-09T13:30:13.132Z,4.88
2022-12-09T13:33:05.490Z,4.89
2022-12-09T13:35:43.748Z,4.90
2022-12-09T13:38:33.597Z,4.92
2022-12-09T13:41:22.203Z,4.92
2022-12-09T13:43:51.896Z,4.91
2022-12-09T13:46:23.645Z,4.94
2022-12-09T13:48:52.804Z,4.96
2022-12-09T13:51:22.016Z,4.96
2022-12-09T13:54:02.245Z,4.93
2022-12-09T13:56:34.098Z,4.83
2022-12-09T13:59:42.658Z,4.76
2022-12-09T14:02:24.925Z,4.68
2022-12-09T14:05:06.586Z,4.58
2022-12-09T14:07:41.759Z,4.52
2022-12-09T14:10:39.890Z,4.45
2022-12-09T14:13:29.710Z,4.39
2022-12-09T14:16:32.930Z,4.36
2022-12-09T14:19:52.665Z,4.34
2022-12-09T14:22:40.092Z,4.30
2022-12-09T14:25:54.767Z,4.27
2022-12-09T14:29:01.006Z,4.24
2022-12-09T14:32:01.671Z,4.20
2022-12-09T14:34:43.853Z,4.16
2022-12-09T14:37:41.529Z,4.12
2022-12-09T14:40:51.880Z,4.08
2022-12-09T14:44:04.098Z,4.06
2022-12-09T14:46:35.066Z,4.02
2022-12-09T14:49:13.264Z,4.02
2022-12-09T14:51:47.914Z,3.99
2022-12-09T14:54:20.541Z,3.94
2022-12-09T14:56:52.216Z,3.88
2022-12-09T14:59:23.164Z,3.85
2022-12-09T15:01:57.887Z,3.81
2022-12-09T15:04:32.697Z,3.78
2022-12-09T15:07:13.773Z,3.76
2022-12-09T15:09:58.867Z,3.71
2022-12-09T15:12:32.246Z,3.67
2022-12-09T15:15:07.695Z,3.63
2022-12-09T15:17:43.191Z,3.59
2022-12-09T15:20:28.363Z,3.55
2022-12-09T15:23:00.140Z,3.53
2022-12-09T15:25:30.094Z,3.51
2022-12-09T15:28:02.057Z,3.50
2022-12-09T15:30:34.481Z,3.49
2022-12-09T15:33:03.737Z,3.47
2022-12-09T15:35:34.421Z,3.45
2022-12-09T15:38:07.387Z,3.43
2022-12-09T15:40:58.975Z,3.41
2022-12-09T15:43:27.575Z,3.38
2022-12-09T15:45:56.269Z,3.37
2022-12-09T15:48:31.181Z,3.34
2022-12-09T15:51:02.877Z,3.33
2022-12-09T15:53:37.809Z,3.33
2022-12-09T15:56:14.085Z,3.33
2022-12-09T15:58:48.460Z,3.32
2022-12-09T16:01:22.584Z,3.32
2022-12-09T16:03:53.827Z,3.31
2022-12-09T16:06:28.094Z,3.29
2022-12-09T16:08:56.683Z,3.29
2022-12-09T16:11:40.699Z,3.27
2022-12-09T16:14:10.712Z,3.25
2022-12-09T16:16:47.366Z,3.25
2022-12-09T16:19:43.490Z,3.23
2022-12-09T16:22:22.524Z,3.26
2022-12-09T16:25:14.101Z,3.26
2022-12-09T16:27:49.915Z,3.24
2022-12-09T16:30:21.986Z,3.23
2022-12-09T16:32:53.394Z,3.22
2022-12-09T16:35:25.270Z,3.22
2022-12-09T16:38:20.803Z,3.18
2022-12-09T16:41:13.319Z,3.15
2022-12-09T16:44:03.920Z,3.13
2022-12-09T16:46:42.607Z,3.11
2022-12-09T16:49:11.126Z,3.11
2022-12-09T16:51:40.739Z,3.11
2022-12-09T16:54:20.794Z,3.10
2022-12-09T16:56:51.243Z,3.11
2022-12-09T16:59:20.817Z,3.11
2022-12-09T17:01:49.172Z,3.11
2022-12-09T17:04:22.703Z,3.11
2022-12-09T17:06:50.965Z,3.11
2022-12-09T17:09:19.751Z,3.10
2022-12-09T17:11:49.216Z,3.10
2022-12-09T17:14:18.239Z,3.08
2022-12-09T17:16:47.866Z,3.08
2022-12-09T17:19:16.155Z,3.08
2022-12-09T17:21:44.383Z,3.08
2022-12-09T17:24:13.289Z,3.07
2022-12-09T17:26:41.830Z,3.07
2022-12-09T17:29:10.259Z,3.07
2022-12-09T17:31:38.480Z,3.06
2022-12-09T17:34:08.416Z,3.05
2022-12-09T17:36:36.907Z,3.06
2022-12-09T17:39:06.070Z,3.05
2022-12-09T17:41:34.814Z,3.05
2022-12-09T17:44:03.278Z,3.04
2022-12-09T17:46:31.984Z,3.03
2022-12-09T17:49:01.631Z,3.04
2022-12-09T17:51:36.025Z,3.04
2022-12-09T17:54:05.624Z,3.01
2022-12-09T17:56:34.391Z,2.99
2022-12-09T17:59:08.514Z,2.99
2022-12-09T18:01:38.003Z,2.96
2022-12-09T18:04:10.347Z,2.94
2022-12-09T18:06:43.124Z,2.92
2022-12-09T18:09:14.820Z,2.90
2022-12-09T18:11:43.667Z,2.87
2022-12-09T18:14:12.075Z,2.85
2022-12-09T18:16:40.804Z,2.84
2022-12-09T18:19:12.766Z,2.82
2022-12-09T18:21:42.519Z,2.80
2022-12-09T18:24:11.423Z,2.79
2022-12-09T18:26:42.263Z,2.76
2022-12-09T18:29:11.240Z,2.75
2022-12-09T18:31:40.684Z,2.73
2022-12-09T18:34:09.455Z,2.72
2022-12-09T18:36:38.175Z,2.71
2022-12-09T18:39:08.617Z,2.69
2022-12-09T18:41:37.616Z,2.68
2022-12-09T18:44:07.844Z,2.66
2022-12-09T18:46:39.072Z,2.67
2022-12-09T18:49:10.002Z,2.65
2022-12-09T18:51:39.693Z,2.64
2022-12-09T18:54:10.357Z,2.62
2022-12-09T18:56:38.852Z,2.61
2022-12-09T18:59:08.675Z,2.60
2022-12-09T19:01:40.952Z,2.58
2022-12-09T19:04:14.252Z,2.55
2022-12-09T19:06:44.722Z,2.54
2022-12-09T19:09:17.202Z,2.52
2022-12-09T19:11:47.932Z,2.50
2022-12-09T19:14:18.371Z,2.50
2022-12-09T19:16:47.557Z,2.50
2022-12-09T19:19:18.726Z,2.49
2022-12-09T19:21:47.647Z,2.49
2022-12-09T19:24:21.540Z,2.49
2022-12-09T19:26:51.195Z,2.48
2022-12-09T19:29:20.105Z,2.48
2022-12-09T19:31:50.711Z,2.47
2022-12-09T19:34:21.507Z,2.47
2022-12-09T19:36:51.974Z,2.47
2022-12-09T19:39:25.262Z,2.45
2022-12-09T19:41:53.915Z,2.45
2022-12-09T19:44:44.243Z,2.45
2022-12-09T19:47:11.011Z,2.44
2022-12-09T19:49:41.287Z,2.45
2022-12-09T19:52:09.838Z,2.45
2022-12-09T19:54:39.523Z,2.43
2022-12-09T19:57:08.082Z,2.43
2022-12-09T19:59:37.581Z,2.41
2022-12-09T20:02:07.853Z,2.40
2022-12-09T20:04:51.733Z,2.39
2022-12-09T20:07:20.829Z,2.38
2022-12-09T20:09:50.707Z,2.38
2022-12-09T20:12:19.394Z,2.37
2022-12-09T20:14:47.874Z,2.36
2022-12-09T20:17:17.303Z,2.35
2022-12-09T20:19:45.878Z,2.36
2022-12-09T20:22:14.405Z,2.34
2022-12-09T20:24:44.066Z,2.33
2022-12-09T20:27:13.704Z,2.34
2022-12-09T20:29:42.235Z,2.33
2022-12-09T20:32:10.917Z,2.33
2022-12-09T20:34:39.775Z,2.33
2022-12-09T20:37:08.285Z,2.33
2022-12-09T20:39:36.956Z,2.34
2022-12-09T20:42:05.500Z,2.34
2022-12-09T20:44:35.116Z,2.33
2022-12-09T20:47:03.691Z,2.32
2022-12-09T20:49:32.221Z,2.32
2022-12-09T20:52:00.929Z,2.30
2022-12-09T20:54:29.242Z,2.29
2022-12-09T20:56:57.747Z,2.29
2022-12-09T20:59:26.280Z,2.28
2022-12-09T21:01:55.909Z,2.28
2022-12-09T21:04:24.493Z,2.28
2022-12-09T21:06:53.229Z,2.29
2022-12-09T21:09:26.968Z,2.28
2022-12-09T21:11:56.975Z,2.26
2022-12-09T21:14:31.123Z,2.26
2022-12-09T21:17:04.275Z,2.25
2022-12-09T21:19:34.177Z,2.23
2022-12-09T21:22:02.403Z,2.20
2022-12-09T21:24:30.898Z,2.21
2022-12-09T21:27:00.909Z,2.21
2022-12-09T21:29:32.280Z,2.21
2022-12-09T21:32:02.951Z,2.20
2022-12-09T21:34:31.707Z,2.19
2022-12-09T21:37:00.323Z,2.19
2022-12-09T21:39:29.189Z,2.18
2022-12-09T21:41:57.700Z,2.19
2022-12-09T21:44:27.011Z,2.18
2022-12-09T21:46:55.629Z,2.18
2022-12-09T21:49:25.543Z,2.17
2022-12-09T21:51:55.236Z,2.16
2022-12-09T21:54:23.737Z,2.14
2022-12-09T21:56:52.294Z,2.13
2022-12-09T21:59:20.714Z,2.12
2022-12-09T22:01:49.027Z,2.11
2022-12-09T22:04:18.675Z,2.11
2022-12-09T22:06:51.243Z,2.09
2022-12-09T22:09:20.974Z,2.09
2022-12-09T22:11:49.622Z,2.10
2022-12-09T22:14:18.437Z,2.09
2022-12-09T22:16:47.284Z,2.07
2022-12-09T22:19:19.694Z,2.08
2022-12-09T22:21:50.379Z,2.06
2022-12-09T22:24:19.171Z,2.06
2022-12-09T22:26:47.790Z,2.05
2022-12-09T22:29:18.235Z,2.04
2022-12-09T22:31:47.589Z,2.02
2022-12-09T22:34:18.645Z,2.01
2022-12-09T22:36:49.441Z,2.00
2022-12-09T22:39:21.493Z,1.97
2022-12-09T22:41:50.497Z,1.97
2022-12-09T22:44:20.923Z,1.96
2022-12-09T22:46:50.018Z,1.96
2022-12-09T22:49:18.844Z,1.95
2022-12-09T22:51:49.387Z,1.94
2022-12-09T22:54:18.156Z,1.94
2022-12-09T22:56:46.688Z,1.94
2022-12-09T22:59:16.242Z,1.93
2022-12-09T23:01:47.281Z,1.91
2022-12-09T23:04:18.743Z,1.91
2022-12-09T23:06:50.073Z,1.90
2022-12-09T23:09:21.920Z,1.90
2022-12-09T23:11:50.947Z,1.91
2022-12-09T23:14:19.799Z,1.90
2022-12-09T23:16:48.119Z,1.90
2022-12-09T23:19:16.625Z,1.90
2022-12-09T23:21:45.433Z,1.89
2022-12-09T23:24:24.469Z,1.86
2022-12-09T23:26:56.374Z,1.88
2022-12-09T23:29:25.016Z,1.88
2022-12-09T23:31:53.730Z,1.88
2022-12-09T23:34:22.406Z,1.86
2022-12-09T23:36:50.954Z,1.86
2022-12-09T23:39:20.941Z,1.85
2022-12-09T23:41:49.631Z,1.86
2022-12-09T23:44:20.055Z,1.84
2022-12-09T23:46:48.861Z,1.86
2022-12-09T23:49:17.878Z,1.85
2022-12-09T23:51:46.319Z,1.85
2022-12-09T23:54:17.355Z,1.84
2022-12-09T23:56:50.597Z,1.83
2022-12-09T23:59:21.604Z,1.81
